createdAt,value
2023-05-19T02:57:51.678Z,17.00
2023-05-19T05:11:08.336Z,28.83
2023-05-19T05:13:35.495Z,28.70
2023-05-19T05:16:04.889Z,26.60
2023-05-19T05:18:33.081Z,27.35
2023-05-19T05:23:36.113Z,28.70
2023-05-19T05:26:10.126Z,24.80
2023-05-19T05:28:37.317Z,32.00
2023-05-19T06:14:10.650Z,26.38
2023-05-19T06:16:37.781Z,28.23
2023-05-19T06:19:04.903Z,20.73
2023-05-19T06:21:31.875Z,33.10
2023-05-19T06:23:59.041Z,26.50
2023-05-19T06:26:26.651Z,26.50
2023-05-19T06:28:53.718Z,28.05
2023-05-19T06:33:56.306Z,29.27
2023-05-19T06:36:23.280Z,30.58
2023-05-19T06:38:50.138Z,28.58
2023-05-19T06:41:17.537Z,32.38
2023-05-19T06:43:44.420Z,30.83
2023-05-19T06:46:13.226Z,32.40
2023-05-19T06:48:40.210Z,30.88
2023-05-19T06:53:42.514Z,36.25
2023-05-19T06:58:51.829Z,27.67
2023-05-19T07:21:07.699Z,35.17
2023-05-19T07:23:35.266Z,33.65
2023-05-19T07:26:02.568Z,36.60
2023-05-19T07:28:30.130Z,39.22
2023-05-19T07:31:00.573Z,27.17
2023-05-19T07:42:37.085Z,31.60
2023-05-19T07:45:04.580Z,27.15
2023-05-19T07:55:31.176Z,28.90
2023-05-19T08:03:57.161Z,25.83
2023-05-19T08:06:25.476Z,28.40
2023-05-19T08:11:28.327Z,27.70
2023-05-19T08:16:35.031Z,24.17
2023-05-19T08:21:37.610Z,31.13
2023-05-19T08:24:08.201Z,32.70
2023-05-19T08:26:37.645Z,24.83
2023-05-19T08:40:49.579Z,22.58
2023-05-19T08:45:57.167Z,27.83
2023-05-19T09:41:06.582Z,27.63
2023-05-19T09:46:17.187Z,24.23
2023-05-19T09:49:16.095Z,26.70
2023-05-19T09:51:44.518Z,30.33
2023-05-19T09:54:17.055Z,33.55
2023-05-19T09:59:41.297Z,31.85
2023-05-19T10:02:16.046Z,41.58
2023-05-19T10:07:18.134Z,33.45
2023-05-19T10:09:46.299Z,35.83
2023-05-19T10:12:13.856Z,30.20
2023-05-19T10:14:41.028Z,37.38
2023-05-19T10:17:09.885Z,29.85
2023-05-19T10:19:38.845Z,36.08
2023-05-19T10:22:06.032Z,27.75
2023-05-19T10:24:32.853Z,32.33
2023-05-19T10:27:08.092Z,33.03
2023-05-19T10:29:51.145Z,34.58
2023-05-19T10:32:24.946Z,26.98
2023-05-19T10:35:16.596Z,33.80
2023-05-19T10:38:17.742Z,33.38
2023-05-19T10:41:14.346Z,30.02
2023-05-19T10:43:44.059Z,35.95
2023-05-19T10:46:11.236Z,39.95
2023-05-19T10:48:38.124Z,31.65
2023-05-19T10:51:15.997Z,28.08
2023-05-19T10:53:46.558Z,25.08
2023-05-19T10:56:34.192Z,29.98
2023-05-19T10:59:02.281Z,25.88
2023-05-19T11:01:34.343Z,25.83
2023-05-19T11:04:16.005Z,24.95
2023-05-19T11:06:51.866Z,22.80
2023-05-19T11:09:20.981Z,31.43
2023-05-19T11:11:54.225Z,25.83
2023-05-19T11:14:23.865Z,25.50
2023-05-19T11:16:53.415Z,25.40
2023-05-19T11:19:31.762Z,21.08
2023-05-19T11:22:09.921Z,26.33
2023-05-19T11:24:38.605Z,27.30
2023-05-19T11:27:25.087Z,25.48
2023-05-19T11:29:52.658Z,29.40
2023-05-19T11:32:22.337Z,24.23
2023-05-19T11:34:50.640Z,21.65
2023-05-19T11:37:17.787Z,22.33
2023-05-19T11:39:47.410Z,24.90
2023-05-19T11:42:14.587Z,24.10
2023-05-19T11:44:41.693Z,24.20
2023-05-19T11:47:09.315Z,19.98
2023-05-19T11:49:36.466Z,21.98
2023-05-19T11:52:05.049Z,22.48
2023-05-19T11:54:36.871Z,25.38
2023-05-19T11:57:04.469Z,21.58
2023-05-19T11:59:36.385Z,29.67
2023-05-19T12:02:28.070Z,22.95
2023-05-19T12:04:55.358Z,22.90
2023-05-19T12:07:26.315Z,24.33
2023-05-19T12:09:55.724Z,21.52
2023-05-19T12:12:23.387Z,23.38
2023-05-19T12:14:52.161Z,23.98
2023-05-19T12:17:20.548Z,25.02
2023-05-19T12:19:49.003Z,19.10
2023-05-19T12:22:17.431Z,22.63
2023-05-19T12:24:45.655Z,26.75
2023-05-19T12:27:20.609Z,23.92
2023-05-19T12:29:54.782Z,28.75
2023-05-19T12:32:29.223Z,23.50
2023-05-19T12:34:57.811Z,27.05
2023-05-19T12:37:28.138Z,22.35
2023-05-19T12:39:56.553Z,21.33
2023-05-19T12:42:24.725Z,27.50
2023-05-19T12:44:52.989Z,23.80
2023-05-19T12:47:21.082Z,22.77
2023-05-19T12:49:56.836Z,24.42
2023-05-19T12:52:24.487Z,25.70
2023-05-19T12:54:58.791Z,21.20
2023-05-19T12:57:26.546Z,28.52
2023-05-19T12:59:54.565Z,30.60
2023-05-19T13:02:22.173Z,28.38
2023-05-19T13:04:49.266Z,35.13
2023-05-19T13:07:17.328Z,29.00
2023-05-19T13:09:45.091Z,27.45
2023-05-19T13:12:12.221Z,23.95
2023-05-19T13:14:40.941Z,29.88
2023-05-19T13:17:07.870Z,29.40
2023-05-19T13:19:34.856Z,25.05
2023-05-19T13:22:02.003Z,24.05
2023-05-19T13:24:29.121Z,24.63
2023-05-19T13:26:56.339Z,28.80
2023-05-19T13:29:44.718Z,33.42
2023-05-19T13:32:12.400Z,28.77
2023-05-19T13:34:40.821Z,31.60
2023-05-19T13:37:10.054Z,26.23
2023-05-19T13:39:37.962Z,24.98
2023-05-19T13:42:05.206Z,25.40
2023-05-19T13:44:32.988Z,22.98
2023-05-19T13:46:59.928Z,27.63
2023-05-19T13:49:26.973Z,24.27
2023-05-19T13:51:58.514Z,33.03
2023-05-19T13:54:25.523Z,28.88
2023-05-19T13:56:52.891Z,27.00
2023-05-19T13:59:24.662Z,31.33
2023-05-19T14:01:51.647Z,31.00
2023-05-19T14:04:19.575Z,26.23
2023-05-19T14:06:46.935Z,31.17
2023-05-19T14:09:13.949Z,31.35
2023-05-19T14:11:40.894Z,30.83
2023-05-19T14:14:09.429Z,28.88
2023-05-19T14:16:38.404Z,25.95
2023-05-19T14:19:05.570Z,35.22
2023-05-19T14:21:32.981Z,27.85
2023-05-19T14:24:01.567Z,27.20
2023-05-19T14:26:29.391Z,27.80
2023-05-19T14:28:58.034Z,26.98
2023-05-19T14:31:25.124Z,31.27
2023-05-19T14:33:52.614Z,26.55
2023-05-19T14:36:19.694Z,25.92
2023-05-19T14:38:46.868Z,29.20
2023-05-19T14:41:14.026Z,30.63
2023-05-19T14:43:42.416Z,27.25
2023-05-19T14:46:09.479Z,30.85
2023-05-19T14:48:36.775Z,28.92
2023-05-19T14:51:04.348Z,30.30
2023-05-19T14:53:32.088Z,28.88
2023-05-19T14:55:58.978Z,29.15
2023-05-19T14:58:28.400Z,27.30
2023-05-19T15:00:58.263Z,24.67
2023-05-19T15:03:25.465Z,24.88
2023-05-19T15:05:52.546Z,24.92
2023-05-19T15:08:19.491Z,27.92
2023-05-19T15:10:50.198Z,28.02
2023-05-19T15:13:19.063Z,33.30
2023-05-19T15:15:46.236Z,32.13
2023-05-19T15:18:13.440Z,27.13
2023-05-19T15:20:40.574Z,27.10
2023-05-19T15:23:07.448Z,33.13
2023-05-19T15:25:34.462Z,30.58
2023-05-19T15:28:01.680Z,28.80
2023-05-19T15:30:28.833Z,32.85
2023-05-19T15:32:56.006Z,32.47
2023-05-19T15:35:25.449Z,32.38
2023-05-19T15:37:52.342Z,34.85
2023-05-19T15:40:19.410Z,32.15
2023-05-19T15:42:46.317Z,34.53
2023-05-19T15:45:13.170Z,35.83
2023-05-19T15:47:40.107Z,42.75
2023-05-19T15:50:07.752Z,34.65
2023-05-19T15:52:34.663Z,36.58
2023-05-19T15:55:01.640Z,40.25
2023-05-19T15:57:28.842Z,43.03
2023-05-19T15:59:56.750Z,43.00
2023-05-19T16:02:25.161Z,40.67
2023-05-19T16:04:52.378Z,38.08
2023-05-19T16:07:19.283Z,42.47
2023-05-19T16:09:46.209Z,40.42
2023-05-19T16:12:13.012Z,38.25
2023-05-19T16:14:39.935Z,40.08
2023-05-19T16:17:11.649Z,41.13
2023-05-19T16:19:38.882Z,37.58
2023-05-19T16:22:06.174Z,37.72
2023-05-19T16:24:33.135Z,39.03
2023-05-19T16:27:00.154Z,36.63
2023-05-19T16:29:27.016Z,36.88
2023-05-19T16:31:54.170Z,38.42
2023-05-19T16:34:21.248Z,43.10
2023-05-19T16:36:48.591Z,34.30
2023-05-19T16:39:15.811Z,40.20
2023-05-19T16:41:42.642Z,35.65
2023-05-19T16:44:09.524Z,33.28
2023-05-19T16:46:36.591Z,32.28
2023-05-19T16:54:29.095Z,36.28
2023-05-19T16:56:56.032Z,34.88
2023-05-19T17:46:22.593Z,38.60
2023-05-19T17:48:49.603Z,39.90
2023-05-19T19:54:36.918Z,59.42
2023-05-19T19:57:04.540Z,59.88
2023-05-19T19:59:31.384Z,54.08
2023-05-19T20:01:58.406Z,53.58
2023-05-19T20:04:25.465Z,56.83
2023-05-19T20:06:52.549Z,57.20
2023-05-19T20:09:19.472Z,65.15
2023-05-19T20:11:46.430Z,55.55
2023-05-19T20:14:13.837Z,60.67
2023-05-19T20:16:51.081Z,66.88
2023-05-19T20:57:35.326Z,60.78
2023-05-19T21:00:03.225Z,64.65
2023-05-19T21:13:10.785Z,56.92
2023-05-19T21:32:24.245Z,61.42
2023-05-19T21:34:51.630Z,52.95
2023-05-19T21:37:18.746Z,53.22
2023-05-19T21:42:27.737Z,56.85
2023-05-19T21:47:43.357Z,61.70
2023-05-19T21:56:09.526Z,44.13
2023-05-19T22:01:25.069Z,46.45
2023-05-19T22:03:53.535Z,45.50
2023-05-19T22:06:20.826Z,43.97
2023-05-19T22:19:35.858Z,44.33
2023-05-19T22:22:13.070Z,46.78
2023-05-19T22:27:47.293Z,47.60
2023-05-19T22:35:44.810Z,48.47
2023-05-19T22:48:52.751Z,41.00
2023-05-19T22:51:20.691Z,45.42
2023-05-19T22:53:48.860Z,42.90
2023-05-19T22:56:16.434Z,43.97
2023-05-19T22:58:43.311Z,47.17
2023-05-19T23:01:10.275Z,48.17
2023-05-19T23:03:37.344Z,48.08
2023-05-19T23:06:04.299Z,44.33
2023-05-19T23:08:31.240Z,46.05
2023-05-19T23:16:22.263Z,45.63
2023-05-19T23:27:09.139Z,47.10
2023-05-19T23:29:36.063Z,46.05
2023-05-19T23:52:50.106Z,51.17
